Syosyun — JD2406 — position and weather

sailwx.info

Track history (hours):
 
Tides and Currents Weather Stations Pressure Air Temp Water Temp Dewpoint Dewpoint Depression Visibility Wind Speed Wind Dir Waves Ship Positions

Syosyun

Last reported at 2015-Feb-25 10:33 UTC. Time now 2015-Mar-01 16:44 UTC.
Position N 35°05' E 139°38'.

Length 74 m; draft 3.8 m.

Type: Cargo ship. MMSI: 431000201.

Date/timePositionNaut miles runAvg speedWind from/ knotsBaromVisibWave heightAir tempDewpointWater temp
2015-Feb-25 10:33N 35°05' E 139°38'1010.4
2015-Feb-25 09:33N 35°13' E 139°46'1010.2
2015-Feb-25 08:33N 35°23' E 139°42'1110.9
2015-Feb-25 07:32N 35°31' E 139°51'3 0.1
2015-Feb-24 05:14N 35°32' E 139°55'811.5
2015-Feb-24 04:33N 35°26' E 139°49'10 9.9
2015-Feb-24 03:33N 35°17' E 139°46'  
2015-Feb-20 08:33N 35°06' E 139°39'1110.6
2015-Feb-20 07:33N 35°15' E 139°46'10 9.9
2015-Feb-20 06:33N 35°25' E 139°43'11 1.2
2015-Feb-19 21:20N 35°32' E 139°53'810.6
2015-Feb-19 20:33N 35°27' E 139°44'3 3.2
2015-Feb-19 19:33N 35°25' E 139°41'0 0.0
2015-Feb-19 18:33N 35°25' E 139°41'0 0.0
2015-Feb-19 17:33N 35°25' E 139°41'0 0.0
2015-Feb-19 16:33N 35°25' E 139°41'0 0.0
2015-Feb-19 15:33N 35°25' E 139°41'0 0.0
2015-Feb-19 14:33N 35°25' E 139°41'0 0.0
2015-Feb-19 13:33N 35°25' E 139°41'0 0.0
2015-Feb-19 12:33N 35°25' E 139°41'0 0.0
2015-Feb-19 11:33N 35°25' E 139°41'0 0.0
2015-Feb-19 10:33N 35°25' E 139°41'0 0.0
2015-Feb-19 09:33N 35°25' E 139°41'0 0.0
2015-Feb-19 08:33N 35°25' E 139°41'0 0.0
2015-Feb-19 07:30N 35°25' E 139°41'0 0.0
2015-Feb-19 06:33N 35°25' E 139°41'8 7.7
2015-Feb-19 05:33N 35°18' E 139°44'1211.5
2015-Feb-19 04:33N 35°07' E 139°45'1110.3
2015-Feb-19 03:29N 34°57' E 139°39'  
2015-Feb-16 08:33N 34°37' E 134°55'1212.3
2015-Feb-16 07:33N 34°37' E 135°10'1111.1
2015-Feb-16 06:33N 34°40' E 135°23'2 1.5
2015-Feb-16 05:29N 34°42' E 135°24'0 0.0
2015-Feb-16 04:29N 34°42' E 135°24'0 0.0
2015-Feb-16 02:29N 34°42' E 135°24'0 0.0
2015-Feb-16 01:23N 34°42' E 135°24'0 0.0
2015-Feb-16 00:29N 34°42' E 135°24'0 0.0
2015-Feb-15 23:11N 34°42' E 135°24'0 0.0
2015-Feb-15 14:05N 34°42' E 135°24'0 0.0
2015-Feb-15 13:29N 34°42' E 135°24'0 0.0
2015-Feb-15 11:23N 34°42' E 135°24'  
Track history (hours):
 
Tides and Currents Weather Stations Pressure Air Temp Water Temp Dewpoint Dewpoint Depression Visibility Wind Speed Wind Dir Waves Ship Positions

Syosyun

Last reported at 2015-Feb-25 10:33 UTC. Time now 2015-Mar-01 16:44 UTC.
Position N 35°05' E 139°38'.

Length 74 m; draft 3.8 m.

Type: Cargo ship. MMSI: 431000201.

Date/timePositionNaut miles runAvg speedWind from/ knotsBaromVisibWave heightAir tempDewpointWater temp
2015-Feb-25 10:33N 35°05' E 139°38'1010.4
2015-Feb-25 09:33N 35°13' E 139°46'1010.2
2015-Feb-25 08:33N 35°23' E 139°42'1110.9
2015-Feb-25 07:32N 35°31' E 139°51'3 0.1
2015-Feb-24 05:14N 35°32' E 139°55'811.5
2015-Feb-24 04:33N 35°26' E 139°49'10 9.9
2015-Feb-24 03:33N 35°17' E 139°46'  
2015-Feb-20 08:33N 35°06' E 139°39'1110.6
2015-Feb-20 07:33N 35°15' E 139°46'10 9.9
2015-Feb-20 06:33N 35°25' E 139°43'11 1.2
2015-Feb-19 21:20N 35°32' E 139°53'810.6
2015-Feb-19 20:33N 35°27' E 139°44'3 3.2
2015-Feb-19 19:33N 35°25' E 139°41'0 0.0
2015-Feb-19 18:33N 35°25' E 139°41'0 0.0
2015-Feb-19 17:33N 35°25' E 139°41'0 0.0
2015-Feb-19 16:33N 35°25' E 139°41'0 0.0
2015-Feb-19 15:33N 35°25' E 139°41'0 0.0
2015-Feb-19 14:33N 35°25' E 139°41'0 0.0
2015-Feb-19 13:33N 35°25' E 139°41'0 0.0
2015-Feb-19 12:33N 35°25' E 139°41'0 0.0
2015-Feb-19 11:33N 35°25' E 139°41'0 0.0
2015-Feb-19 10:33N 35°25' E 139°41'0 0.0
2015-Feb-19 09:33N 35°25' E 139°41'0 0.0
2015-Feb-19 08:33N 35°25' E 139°41'0 0.0
2015-Feb-19 07:30N 35°25' E 139°41'0 0.0
2015-Feb-19 06:33N 35°25' E 139°41'8 7.7
2015-Feb-19 05:33N 35°18' E 139°44'1211.5
2015-Feb-19 04:33N 35°07' E 139°45'1110.3
2015-Feb-19 03:29N 34°57' E 139°39'  
2015-Feb-16 08:33N 34°37' E 134°55'1212.3
2015-Feb-16 07:33N 34°37' E 135°10'1111.1
2015-Feb-16 06:33N 34°40' E 135°23'2 1.5
2015-Feb-16 05:29N 34°42' E 135°24'0 0.0
2015-Feb-16 04:29N 34°42' E 135°24'0 0.0
2015-Feb-16 02:29N 34°42' E 135°24'0 0.0
2015-Feb-16 01:23N 34°42' E 135°24'0 0.0
2015-Feb-16 00:29N 34°42' E 135°24'0 0.0
2015-Feb-15 23:11N 34°42' E 135°24'0 0.0
2015-Feb-15 14:05N 34°42' E 135°24'0 0.0
2015-Feb-15 13:29N 34°42' E 135°24'0 0.0
2015-Feb-15 11:23N 34°42' E 135°24'  

Dump ship's entire track history